Time;durP1;ratioP1;P1;durP2;ratioP2;P2;SDS_P1;SDS_P2;PMS_P1;PMS_P2;Temp;Humidity;BMP_temperature;BMP_pressure;BME280_temperature;BME280_humidity;BME280_pressure;Samples;Min_cycle;Max_cycle;Signal;HPM_P1;HPM_P2
2023/09/03 00:09:50;;;;;;;6.75;2.72;;;18.10;81.30;;;;;;21090215;28;20401;-56
2023/09/03 00:19:51;;;;;;;6.60;2.55;;;18.30;80.90;;;;;;21090702;28;20081;-58
2023/09/03 00:29:52;;;;;;;3.25;2.10;;;18.20;81.90;;;;;;21088970;28;20080;-58
2023/09/03 00:39:53;;;;;;;4.25;1.80;;;18.10;82.10;;;;;;21090206;28;20078;-57
2023/09/03 00:49:53;;;;;;;2.60;1.63;;;18.20;81.20;;;;;;21088292;28;20041;-57
2023/09/03 00:59:56;;;;;;;3.65;1.85;;;18.20;80.40;;;;;;21087717;28;20044;-57
2023/09/03 01:09:57;;;;;;;2.93;1.97;;;18.10;81.40;;;;;;21085458;28;20051;-57
2023/09/03 01:20:18;;;;;;;6.10;2.40;;;18.20;81.50;;;;;;21085666;28;20525;-55
2023/09/03 01:30:19;;;;;;;3.83;2.45;;;18.10;82.00;;;;;;21084944;28;20055;-58
2023/09/03 01:40:20;;;;;;;4.07;2.17;;;18.10;82.50;;;;;;21082629;28;20055;-57
2023/09/03 01:50:34;;;;;;;3.22;1.80;;;18.20;82.40;;;;;;21083447;28;20115;-57
2023/09/03 02:00:36;;;;;;;2.38;1.80;;;18.20;81.30;;;;;;21080700;28;20055;-56
2023/09/03 02:10:36;;;;;;;3.42;1.75;;;18.30;80.00;;;;;;21080825;28;20044;-58
2023/09/03 02:20:37;;;;;;;4.10;2.47;;;18.30;81.00;;;;;;21081346;28;20036;-57
2023/09/03 02:30:38;;;;;;;3.08;1.60;;;18.40;80.90;;;;;;21080890;28;20078;-57
2023/09/03 02:40:38;;;;;;;4.95;1.90;;;18.30;80.30;;;;;;21079184;28;20130;-56
2023/09/03 02:50:39;;;;;;;5.45;1.95;;;18.30;80.20;;;;;;21078606;28;20096;-57
2023/09/03 03:00:40;;;;;;;3.72;1.90;;;18.30;81.00;;;;;;21078061;28;20051;-56
2023/09/03 03:10:40;;;;;;;2.83;1.80;;;18.40;80.90;;;;;;21084405;28;20408;-57
2023/09/03 03:20:41;;;;;;;4.32;2.15;;;18.50;79.60;;;;;;21095515;28;20127;-57
2023/09/03 03:30:42;;;;;;;2.63;2.00;;;18.60;80.00;;;;;;21094778;28;20120;-56
2023/09/03 03:40:43;;;;;;;3.08;1.98;;;18.70;80.00;;;;;;21092257;28;20056;-56
2023/09/03 03:50:43;;;;;;;4.70;2.20;;;18.70;80.50;;;;;;21091869;28;20047;-56
2023/09/03 04:00:44;;;;;;;3.17;2.30;;;18.80;81.00;;;;;;21090860;28;20482;-57
2023/09/03 04:10:45;;;;;;;6.07;2.90;;;18.90;81.20;;;;;;21091324;28;20040;-56
2023/09/03 04:20:46;;;;;;;5.43;2.50;;;18.90;81.30;;;;;;21089685;28;20094;-57
2023/09/03 04:30:51;;;;;;;3.80;1.88;;;18.90;80.90;;;;;;21089995;28;20580;-57
2023/09/03 04:40:52;;;;;;;5.88;2.10;;;18.90;80.70;;;;;;21089797;28;20087;-56
2023/09/03 04:50:53;;;;;;;4.55;2.20;;;18.90;80.30;;;;;;21087105;28;20047;-57
2023/09/03 05:00:54;;;;;;;3.53;2.00;;;18.80;80.70;;;;;;21087517;28;20048;-56
2023/09/03 05:10:54;;;;;;;4.97;2.13;;;18.80;80.40;;;;;;21085335;28;20051;-56
2023/09/03 05:20:55;;;;;;;4.38;1.95;;;18.80;80.10;;;;;;21085067;28;20043;-56
2023/09/03 05:30:56;;;;;;;3.10;2.30;;;18.70;80.30;;;;;;21085281;28;20047;-57
2023/09/03 05:40:59;;;;;;;3.70;1.90;;;18.80;79.40;;;;;;21082992;28;20048;-57
2023/09/03 05:51:04;;;;;;;3.47;1.83;;;18.90;78.40;;;;;;21082452;28;20055;-57
2023/09/03 06:01:07;;;;;;;3.70;1.60;;;18.90;78.40;;;;;;21081823;28;20097;-57
2023/09/03 06:11:08;;;;;;;2.33;1.60;;;18.80;78.40;;;;;;21080352;28;20609;-57
2023/09/03 06:21:09;;;;;;;4.72;2.17;;;18.80;78.20;;;;;;21080723;28;20047;-57
2023/09/03 06:31:09;;;;;;;5.00;2.10;;;18.80;78.40;;;;;;21079158;28;20040;-57
2023/09/03 06:41:10;;;;;;;2.65;2.00;;;19.00;78.10;;;;;;21080165;28;20123;-57
2023/09/03 06:51:11;;;;;;;3.58;1.85;;;19.10;78.20;;;;;;21078868;28;20055;-57
2023/09/03 07:01:12;;;;;;;5.43;1.92;;;19.20;77.70;;;;;;21079039;28;20048;-57
2023/09/03 07:11:13;;;;;;;4.80;2.33;;;19.20;78.10;;;;;;21078556;28;20040;-57
2023/09/03 07:21:14;;;;;;;3.15;1.60;;;19.30;78.60;;;;;;21077927;28;20071;-57
2023/09/03 07:31:14;;;;;;;4.60;1.80;;;19.40;77.50;;;;;;21077319;28;20040;-56
2023/09/03 07:41:15;;;;;;;2.42;1.80;;;19.40;77.70;;;;;;21076175;28;20182;-58
2023/09/03 07:51:17;;;;;;;4.35;1.80;;;19.60;77.20;;;;;;21075415;28;20097;-57
2023/09/03 08:01:19;;;;;;;2.80;1.50;;;19.80;76.00;;;;;;21085448;28;20040;-57
2023/09/03 08:11:23;;;;;;;2.42;1.50;;;19.90;75.00;;;;;;21090929;28;20055;-57
2023/09/03 08:21:24;;;;;;;2.47;1.30;;;19.90;75.00;;;;;;21090209;28;20044;-57
2023/09/03 08:31:24;;;;;;;3.95;1.55;;;20.10;74.10;;;;;;21088129;28;20123;-56
2023/09/03 08:41:25;;;;;;;2.95;1.48;;;20.20;74.00;;;;;;21087414;28;20087;-57
2023/09/03 08:51:27;;;;;;;4.50;1.88;;;20.20;73.30;;;;;;21087281;28;20052;-57
2023/09/03 09:01:30;;;;;;;5.07;1.70;;;20.30;73.40;;;;;;21086767;28;20044;-56
2023/09/03 09:11:37;;;;;;;4.05;2.00;;;20.30;74.50;;;;;;21085917;28;20121;-57
2023/09/03 09:21:38;;;;;;;3.92;2.00;;;20.30;75.40;;;;;;21083643;28;20120;-57
2023/09/03 09:31:38;;;;;;;5.00;2.58;;;20.20;76.00;;;;;;21084417;28;20173;-57
2023/09/03 09:41:39;;;;;;;3.60;2.20;;;20.30;76.70;;;;;;21082504;28;20114;-57
2023/09/03 09:51:40;;;;;;;4.05;2.10;;;20.20;78.40;;;;;;21082826;28;20119;-59
2023/09/03 10:01:43;;;;;;;5.88;1.85;;;20.20;78.50;;;;;;21080883;28;20390;-57
2023/09/03 10:11:44;;;;;;;3.85;2.35;;;20.30;78.90;;;;;;21081734;28;20440;-58
2023/09/03 10:21:48;;;;;;;3.80;1.50;;;20.60;78.40;;;;;;21080208;28;20084;-58
2023/09/03 10:31:51;;;;;;;2.38;1.30;;;20.80;76.60;;;;;;21080575;28;20163;-58
2023/09/03 10:42:16;;;;;;;4.00;1.53;;;21.20;75.40;;;;;;21078776;28;20052;-57
2023/09/03 10:52:37;;;;;;;4.53;1.63;;;21.30;73.10;;;;;;21079633;28;20296;-58
2023/09/03 11:02:39;;;;;;;3.55;2.08;;;21.40;73.50;;;;;;21077955;28;20056;-57
2023/09/03 11:12:41;;;;;;;4.70;2.13;;;21.60;72.60;;;;;;21078796;28;20052;-58
2023/09/03 11:22:42;;;;;;;3.93;1.70;;;21.70;72.50;;;;;;21078384;28;20044;-58
2023/09/03 11:32:43;;;;;;;8.63;6.05;;;21.60;72.60;;;;;;21083775;28;20048;-57
2023/09/03 11:42:45;;;;;;;8.30;2.00;;;21.60;73.50;;;;;;21092061;28;20515;-58
2023/09/03 11:52:56;;;;;;;5.18;2.05;;;21.60;74.70;;;;;;21093211;28;20098;-59
2023/09/03 12:02:58;;;;;;;6.10;2.22;;;21.40;75.50;;;;;;21092554;28;20124;-57
2023/09/03 12:12:59;;;;;;;9.32;3.38;;;21.40;75.60;;;;;;21090218;28;20056;-59
2023/09/03 12:23:10;;;;;;;7.68;3.50;;;21.20;77.50;;;;;;21090402;28;20043;-58
2023/09/03 12:33:11;;;;;;;11.85;4.18;;;20.90;80.00;;;;;;21089266;28;20397;-57
2023/09/03 12:43:12;;;;;;;11.10;4.90;;;20.80;80.50;;;;;;21088502;28;20113;-58
2023/09/03 12:53:13;;;;;;;9.75;4.55;;;20.90;80.70;;;;;;21087823;28;20048;-57
2023/09/03 13:03:13;;;;;;;10.40;4.30;;;21.10;80.80;;;;;;21085733;28;20174;-57
2023/09/03 13:13:14;;;;;;;11.15;3.72;;;21.20;80.60;;;;;;21086061;28;20502;-58
2023/09/03 13:23:15;;;;;;;11.70;5.63;;;21.00;81.00;;;;;;21085892;28;20477;-58
2023/09/03 13:33:15;;;;;;;17.30;5.75;;;20.90;81.20;;;;;;21083431;28;20044;-57
2023/09/03 13:43:17;;;;;;;17.63;5.63;;;20.80;81.20;;;;;;21082317;28;20048;-57
2023/09/03 13:53:18;;;;;;;13.50;4.47;;;20.60;81.80;;;;;;21080348;28;20126;-58
2023/09/03 14:03:19;;;;;;;13.90;4.68;;;20.50;81.40;;;;;;21082171;28;20079;-56
2023/09/03 14:13:19;;;;;;;17.08;4.32;;;20.30;81.50;;;;;;21081821;28;20071;-57
2023/09/03 14:23:20;;;;;;;13.68;3.78;;;20.20;80.00;;;;;;21081186;28;20393;-57
2023/09/03 14:33:21;;;;;;;13.23;4.45;;;20.00;80.70;;;;;;21079184;28;20040;-56
2023/09/03 14:43:22;;;;;;;14.60;5.20;;;19.90;80.70;;;;;;21078865;28;20123;-57
2023/09/03 14:53:23;;;;;;;15.07;4.75;;;20.10;80.90;;;;;;21079920;28;20050;-57
2023/09/03 15:03:24;;;;;;;13.15;4.82;;;19.90;79.90;;;;;;21079809;28;20131;-58
2023/09/03 15:13:24;;;;;;;13.40;4.45;;;19.70;80.50;;;;;;21096488;28;20082;-58
2023/09/03 15:23:25;;;;;;;12.13;4.20;;;19.90;81.10;;;;;;21095766;28;20126;-57
2023/09/03 15:33:26;;;;;;;14.45;4.30;;;19.90;79.60;;;;;;21094678;28;20076;-57
2023/09/03 15:43:27;;;;;;;14.20;4.70;;;19.80;79.90;;;;;;21092284;28;20139;-57
2023/09/03 15:53:28;;;;;;;11.77;4.10;;;19.70;80.20;;;;;;21093022;28;20044;-58
2023/09/03 16:03:29;;;;;;;14.82;3.90;;;19.70;80.70;;;;;;21090909;28;20048;-60
2023/09/03 16:13:29;;;;;;;10.70;3.15;;;19.70;79.40;;;;;;21090078;28;20044;-59
2023/09/03 16:23:30;;;;;;;16.92;3.30;;;19.70;79.70;;;;;;21088625;28;20040;-58
2023/09/03 16:33:31;;;;;;;11.05;3.80;;;19.80;79.40;;;;;;21090292;28;20565;-60
2023/09/03 16:43:32;;;;;;;9.95;1.90;;;20.00;79.90;;;;;;21090193;28;20059;-59
2023/09/03 16:53:33;;;;;;;5.93;2.53;;;20.30;78.80;;;;;;21089742;28;20074;-59
2023/09/03 17:03:33;;;;;;;7.63;2.70;;;20.30;79.30;;;;;;21088206;28;20048;-58
2023/09/03 17:13:34;;;;;;;7.18;2.60;;;20.40;79.60;;;;;;21084112;28;20083;-58
2023/09/03 17:23:38;;;;;;;10.07;2.78;;;20.50;79.20;;;;;;21086029;28;20389;-59
2023/09/03 17:33:39;;;;;;;9.70;2.97;;;20.60;78.90;;;;;;21084865;28;20047;-56
2023/09/03 17:43:40;;;;;;;10.25;3.25;;;20.60;79.10;;;;;;21084674;28;20387;-57
2023/09/03 17:53:41;;;;;;;11.18;2.90;;;20.60;79.50;;;;;;21082244;28;20043;-58
2023/09/03 18:03:41;;;;;;;11.82;4.53;;;20.70;79.50;;;;;;21081086;28;20040;-58
2023/09/03 18:13:43;;;;;;;12.43;3.78;;;20.70;79.70;;;;;;21082203;28;20474;-57
2023/09/03 18:23:44;;;;;;;11.23;3.90;;;20.70;79.90;;;;;;21081524;28;20172;-58
2023/09/03 18:33:45;;;;;;;14.27;3.95;;;20.80;80.10;;;;;;21079554;28;20092;-57
2023/09/03 18:43:46;;;;;;;12.65;4.63;;;20.90;80.20;;;;;;21078412;28;20123;-59
2023/09/03 18:53:47;;;;;;;10.93;4.03;;;21.00;80.30;;;;;;21079771;28;20055;-58
2023/09/03 19:03:48;;;;;;;14.00;4.47;;;21.00;80.30;;;;;;21077970;28;20048;-57
2023/09/03 19:13:48;;;;;;;18.48;4.72;;;21.10;80.50;;;;;;21078886;28;20048;-58
2023/09/03 19:23:49;;;;;;;18.08;7.00;;;21.20;80.10;;;;;;21077769;28;20097;-58
2023/09/03 19:33:50;;;;;;;15.15;6.07;;;21.20;79.70;;;;;;21077365;28;20044;-57
2023/09/03 19:43:50;;;;;;;18.60;6.00;;;21.30;79.10;;;;;;21078131;28;20101;-57
2023/09/03 19:53:53;;;;;;;20.73;7.25;;;21.30;79.40;;;;;;21084981;28;20131;-57
2023/09/03 20:03:53;;;;;;;19.03;7.67;;;21.50;79.30;;;;;;21092743;28;20084;-59
2023/09/03 20:13:57;;;;;;;21.95;6.18;;;21.50;79.00;;;;;;21090875;28;20047;-58
2023/09/03 20:23:57;;;;;;;22.38;6.45;;;21.60;77.70;;;;;;21091446;28;20048;-58
2023/09/03 20:33:58;;;;;;;24.75;6.95;;;21.70;76.10;;;;;;21090332;28;20127;-60
2023/09/03 20:43:59;;;;;;;21.55;6.18;;;21.80;75.10;;;;;;21089820;28;20059;-58
2023/09/03 20:54:00;;;;;;;24.90;6.13;;;22.00;73.70;;;;;;21087574;28;20086;-58
2023/09/03 21:04:01;;;;;;;23.42;7.13;;;22.10;73.10;;;;;;21087156;28;20477;-59
2023/09/03 21:14:02;;;;;;;34.33;8.95;;;22.10;73.20;;;;;;21086039;28;20036;-59
2023/09/03 21:24:03;;;;;;;26.80;7.38;;;22.20;73.00;;;;;;21084957;28;20101;-58
2023/09/03 21:34:04;;;;;;;23.42;5.55;;;22.20;73.20;;;;;;21085397;28;20051;-57
2023/09/03 21:44:15;;;;;;;14.30;4.72;;;22.30;73.30;;;;;;21083403;28;20095;-57
2023/09/03 21:54:16;;;;;;;11.65;2.85;;;22.10;73.50;;;;;;21083850;28;20561;-57
2023/09/03 22:04:17;;;;;;;13.75;3.33;;;21.60;74.50;;;;;;21083324;28;20544;-57
2023/09/03 22:14:18;;;;;;;14.48;4.22;;;21.50;75.80;;;;;;21080488;28;20054;-57
2023/09/03 22:24:19;;;;;;;18.30;5.15;;;21.20;78.90;;;;;;21082032;28;20445;-58
2023/09/03 22:34:20;;;;;;;17.15;4.75;;;20.80;80.80;;;;;;21080033;28;20101;-57
2023/09/03 22:44:21;;;;;;;16.15;4.93;;;20.70;82.20;;;;;;21079325;28;20044;-58
2023/09/03 22:54:22;;;;;;;14.48;3.70;;;20.50;83.10;;;;;;21078911;28;20051;-57
2023/09/03 23:04:22;;;;;;;16.10;3.88;;;20.60;83.20;;;;;;21079503;28;20123;-57
2023/09/03 23:14:23;;;;;;;15.27;4.40;;;20.40;83.20;;;;;;21079306;28;20089;-58
2023/09/03 23:24:24;;;;;;;11.75;4.65;;;20.40;83.30;;;;;;21078843;28;20044;-57
2023/09/03 23:34:25;;;;;;;16.58;5.00;;;20.40;83.30;;;;;;21094867;28;20417;-57
2023/09/03 23:44:26;;;;;;;13.65;4.82;;;20.40;83.20;;;;;;21094889;28;20044;-57
2023/09/03 23:54:26;;;;;;;13.32;4.97;;;20.40;83.10;;;;;;21094009;28;20044;-57
